Terminal Aerodrome Forecast
Issued by NWS

Home | Current Version | Previous Version | Text Only | Print | Product List | Glossary On
Versions: 1 2 3 4 5 6 7 8 9 10 11 12 13 14 15
591
FTUS46 KMTR 282025 AAA
TAFOAK
TAF AMD
KOAK 282025Z 2820/2924 26010KT P6SM BKN010
     FM282200 28013KT P6SM FEW010
     FM290300 30005KT P6SM BKN010
     FM290600 29006KT P6SM OVC010
     FM292000 28012KT P6SM FEW010=

USA.gov is the U.S. government's official web portal to all federal, state and local government web resources and services.